Mindoro — SVAS8 — position and weather

sailwx.info

Track history (hours):
 
Tides and Currents Weather Stations Pressure Air Temp Water Temp Dewpoint Dewpoint Depression Visibility Wind Speed Wind Dir Waves Ship Positions

Mindoro

Last reported at 2015-Apr-19 12:07 UTC. Time now 2015-May-05 18:19 UTC.
Position N 08°10' W 015°03'.
Warning: this ship's position is 16 days out of date.

Length 245 m; draft 13.4 m.

Type: Ship (hazmat cat B). MMSI: 240924000.

Date/timePositionNaut miles runAvg speedWind from/ knotsBaromVisibWave heightAir tempDewpointWater temp
2015-Apr-19 12:07N 08°10' W 015°03'713.1
2015-Apr-19 11:33N 08°15' W 015°08'4714.6
2015-Apr-19 08:19N 08°47' W 015°43'1114.6
2015-Apr-19 07:33N 08°54' W 015°52'1514.5
2015-Apr-19 06:33N 09°04' W 016°03'1414.4
2015-Apr-19 05:33N 09°14' W 016°14'10 9.2
2015-Apr-19 04:27N 09°21' W 016°21'5 5.6
2015-Apr-19 03:33N 09°25' W 016°24'  
2015-Apr-15 21:19N 27°35' W 015°14'1215.2
2015-Apr-15 20:33N 27°46' W 015°11'1514.5
2015-Apr-15 19:33N 28°00' W 015°12'1010.1
2015-Apr-15 18:33N 28°08' W 015°20'7 7.4
2015-Apr-15 17:33N 28°15' W 015°18'1515.0
2015-Apr-15 16:33N 28°29' W 015°12'1515.2
2015-Apr-15 15:33N 28°44' W 015°07'1514.9
2015-Apr-15 14:33N 28°58' W 015°02'63714.7
2015-Apr-13 19:11N 39°10' W 011°28'  
2015-Apr-11 04:33N 50°34' E 000°09'1414.2
2015-Apr-11 03:34N 50°37' E 000°30'1313.3
2015-Apr-11 02:33N 50°43' E 000°49'1313.2
2015-Apr-11 01:34N 50°51' E 001°05'1414.0
2015-Apr-11 00:34N 51°01' E 001°21'1616.1
2015-Apr-10 23:33N 51°11' E 001°41'1616.0
2015-Apr-10 22:34N 51°25' E 001°55'1514.6
2015-Apr-10 21:33N 51°36' E 002°09'1414.4
2015-Apr-10 20:33N 51°47' E 002°25'3912.8
2015-Apr-10 17:33N 52°23' E 002°47'2913.7
2015-Apr-10 15:26N 52°48' E 003°10'1314.6
2015-Apr-10 14:34N 53°00' E 003°18'1514.2
2015-Apr-10 13:32N 53°14' E 003°25'30113.6
2015-Apr-09 15:27N 57°28' E 008°08'  
Track history (hours):
 
Tides and Currents Weather Stations Pressure Air Temp Water Temp Dewpoint Dewpoint Depression Visibility Wind Speed Wind Dir Waves Ship Positions

Mindoro

Last reported at 2015-Apr-19 12:07 UTC. Time now 2015-May-05 18:19 UTC.
Position N 08°10' W 015°03'.
Warning: this ship's position is 16 days out of date.

Length 245 m; draft 13.4 m.

Type: Ship (hazmat cat B). MMSI: 240924000.

Date/timePositionNaut miles runAvg speedWind from/ knotsBaromVisibWave heightAir tempDewpointWater temp
2015-Apr-19 12:07N 08°10' W 015°03'713.1
2015-Apr-19 11:33N 08°15' W 015°08'4714.6
2015-Apr-19 08:19N 08°47' W 015°43'1114.6
2015-Apr-19 07:33N 08°54' W 015°52'1514.5
2015-Apr-19 06:33N 09°04' W 016°03'1414.4
2015-Apr-19 05:33N 09°14' W 016°14'10 9.2
2015-Apr-19 04:27N 09°21' W 016°21'5 5.6
2015-Apr-19 03:33N 09°25' W 016°24'  
2015-Apr-15 21:19N 27°35' W 015°14'1215.2
2015-Apr-15 20:33N 27°46' W 015°11'1514.5
2015-Apr-15 19:33N 28°00' W 015°12'1010.1
2015-Apr-15 18:33N 28°08' W 015°20'7 7.4
2015-Apr-15 17:33N 28°15' W 015°18'1515.0
2015-Apr-15 16:33N 28°29' W 015°12'1515.2
2015-Apr-15 15:33N 28°44' W 015°07'1514.9
2015-Apr-15 14:33N 28°58' W 015°02'63714.7
2015-Apr-13 19:11N 39°10' W 011°28'  
2015-Apr-11 04:33N 50°34' E 000°09'1414.2
2015-Apr-11 03:34N 50°37' E 000°30'1313.3
2015-Apr-11 02:33N 50°43' E 000°49'1313.2
2015-Apr-11 01:34N 50°51' E 001°05'1414.0
2015-Apr-11 00:34N 51°01' E 001°21'1616.1
2015-Apr-10 23:33N 51°11' E 001°41'1616.0
2015-Apr-10 22:34N 51°25' E 001°55'1514.6
2015-Apr-10 21:33N 51°36' E 002°09'1414.4
2015-Apr-10 20:33N 51°47' E 002°25'3912.8
2015-Apr-10 17:33N 52°23' E 002°47'2913.7
2015-Apr-10 15:26N 52°48' E 003°10'1314.6
2015-Apr-10 14:34N 53°00' E 003°18'1514.2
2015-Apr-10 13:32N 53°14' E 003°25'30113.6
2015-Apr-09 15:27N 57°28' E 008°08'  

Dump ship's entire track history